createdAt,value
2018-06-15T00:02:29.774Z,17.30
2018-06-15T00:04:58.153Z,17.30
2018-06-15T00:07:26.469Z,17.20
2018-06-15T00:09:54.805Z,17.20
2018-06-15T00:12:23.102Z,17.10
2018-06-15T00:14:51.424Z,17.10
2018-06-15T00:17:19.747Z,17.20
2018-06-15T00:19:48.176Z,17.20
2018-06-15T00:22:16.481Z,17.20
2018-06-15T00:24:44.808Z,17.10
2018-06-15T00:27:13.167Z,17.00
2018-06-15T00:29:41.560Z,17.10
2018-06-15T00:32:09.844Z,16.90
2018-06-15T00:34:38.137Z,16.70
2018-06-15T00:37:06.446Z,16.70
2018-06-15T00:39:34.767Z,16.90
2018-06-15T00:42:03.055Z,16.80
2018-06-15T00:44:31.343Z,16.80
2018-06-15T00:46:59.638Z,16.90
2018-06-15T00:49:27.932Z,16.90
2018-06-15T00:54:24.321Z,16.90
2018-06-15T00:57:04.096Z,16.90
2018-06-15T00:59:32.441Z,16.90
2018-06-15T01:02:00.727Z,16.80
2018-06-15T01:04:29.028Z,16.90
2018-06-15T01:06:57.309Z,16.80
2018-06-15T01:09:25.906Z,16.80
2018-06-15T01:11:54.197Z,16.80
2018-06-15T01:14:22.512Z,16.80
2018-06-15T01:16:50.859Z,16.80
2018-06-15T01:19:19.181Z,16.80
2018-06-15T01:21:47.484Z,16.80
2018-06-15T01:24:15.768Z,16.80
2018-06-15T01:26:44.111Z,16.70
2018-06-15T01:29:12.411Z,16.80
2018-06-15T01:31:40.707Z,16.70
2018-06-15T01:34:08.996Z,16.60
2018-06-15T01:36:37.321Z,16.70
2018-06-15T01:39:07.090Z,16.60
2018-06-15T01:41:35.719Z,16.60
2018-06-15T01:44:04.059Z,16.60
2018-06-15T01:46:32.372Z,16.60
2018-06-15T01:49:00.700Z,16.60
2018-06-15T01:51:28.990Z,16.60
2018-06-15T01:53:57.287Z,16.60
2018-06-15T01:56:25.696Z,16.70
2018-06-15T01:58:54.035Z,16.70
2018-06-15T02:01:22.479Z,16.60
2018-06-15T02:03:50.713Z,16.60
2018-06-15T02:06:19.410Z,16.60
2018-06-15T02:08:48.549Z,16.60
2018-06-15T02:11:17.561Z,16.50
2018-06-15T02:13:45.849Z,16.60
2018-06-15T02:16:14.179Z,16.60
2018-06-15T02:18:42.471Z,16.60
2018-06-15T02:21:10.737Z,16.60
2018-06-15T02:23:38.998Z,16.50
2018-06-15T02:26:07.352Z,16.50
2018-06-15T02:28:35.638Z,16.40
2018-06-15T02:31:03.954Z,16.30
2018-06-15T02:33:33.128Z,16.20
2018-06-15T02:36:03.714Z,16.20
2018-06-15T02:38:32.181Z,16.20
2018-06-15T02:41:01.416Z,16.20
2018-06-15T02:43:29.836Z,16.30
2018-06-15T02:45:58.549Z,16.00
2018-06-15T02:48:26.825Z,15.90
2018-06-15T02:50:55.092Z,15.80
2018-06-15T02:53:23.391Z,15.80
2018-06-15T02:55:51.718Z,15.80
2018-06-15T02:58:20.020Z,15.80
2018-06-15T03:03:16.347Z,15.50
2018-06-15T03:05:44.657Z,15.40
2018-06-15T03:08:12.958Z,15.40
2018-06-15T03:10:41.395Z,15.50
2018-06-15T03:13:09.681Z,15.50
2018-06-15T03:15:37.976Z,15.40
2018-06-15T03:20:34.290Z,15.20
2018-06-15T03:23:02.600Z,15.30
2018-06-15T03:25:30.914Z,15.20
2018-06-15T03:27:59.284Z,15.40
2018-06-15T03:32:55.649Z,15.40
2018-06-15T03:37:52.005Z,15.60
2018-06-15T03:40:20.354Z,15.50
2018-06-15T03:42:48.764Z,15.60
2018-06-15T03:45:17.124Z,15.70
2018-06-15T03:47:45.453Z,15.60
2018-06-15T03:50:13.779Z,15.60
2018-06-15T03:52:42.099Z,15.40
2018-06-15T03:55:10.397Z,15.30
2018-06-15T03:57:38.682Z,15.20
2018-06-15T04:00:06.990Z,15.30
2018-06-15T04:02:35.288Z,15.20
2018-06-15T04:05:03.679Z,15.30
2018-06-15T04:07:32.006Z,15.40
2018-06-15T04:10:00.341Z,15.70
2018-06-15T04:12:28.653Z,15.60
2018-06-15T04:14:56.941Z,15.50
2018-06-15T04:17:25.383Z,15.40
2018-06-15T04:19:53.737Z,15.50
2018-06-15T04:22:22.056Z,15.40
2018-06-15T04:24:50.378Z,15.40
2018-06-15T04:27:18.682Z,15.40
2018-06-15T04:29:46.989Z,15.50
2018-06-15T04:32:15.297Z,15.30
2018-06-15T04:34:43.621Z,15.30
2018-06-15T04:37:12.096Z,15.30
2018-06-15T04:39:40.414Z,15.20
2018-06-15T04:42:08.754Z,15.20
2018-06-15T04:44:37.037Z,15.40
2018-06-15T04:47:05.653Z,15.40
2018-06-15T04:49:33.961Z,15.50
2018-06-15T04:52:03.185Z,15.40
2018-06-15T04:54:31.477Z,15.40
2018-06-15T04:59:28.398Z,15.40
2018-06-15T05:01:56.686Z,15.40
2018-06-15T05:04:24.996Z,15.30
2018-06-15T05:06:53.264Z,15.40
2018-06-15T05:11:49.611Z,15.50
2018-06-15T05:14:17.939Z,15.60
2018-06-15T05:16:46.204Z,15.80
2018-06-15T05:19:14.460Z,15.80
2018-06-15T05:21:42.745Z,15.90
2018-06-15T05:24:11.037Z,15.90
2018-06-15T05:29:07.445Z,16.10
2018-06-15T05:31:35.755Z,16.20
2018-06-15T05:34:04.069Z,16.00
2018-06-15T05:36:32.372Z,16.00
2018-06-15T05:39:00.663Z,16.10
2018-06-15T05:41:29.035Z,16.10
2018-06-15T05:43:57.347Z,16.20
2018-06-15T05:46:25.737Z,16.40
2018-06-15T05:48:54.096Z,16.50
2018-06-15T05:51:22.400Z,16.50
2018-06-15T05:53:50.714Z,16.50
2018-06-15T05:56:19.084Z,16.60
2018-06-15T05:58:47.628Z,16.50
2018-06-15T06:01:16.057Z,16.50
2018-06-15T06:03:44.373Z,16.60
2018-06-15T06:06:12.662Z,16.80
2018-06-15T06:08:41.010Z,16.80
2018-06-15T06:11:09.332Z,17.00
2018-06-15T06:13:37.651Z,17.20
2018-06-15T06:16:06.082Z,17.40
2018-06-15T06:18:34.409Z,17.60
2018-06-15T06:21:02.971Z,17.70
2018-06-15T06:23:31.447Z,17.80
2018-06-15T06:25:59.815Z,17.90
2018-06-15T06:28:28.092Z,17.90
2018-06-15T06:30:56.620Z,18.00
2018-06-15T06:33:24.970Z,18.10
2018-06-15T06:35:53.353Z,18.20
2018-06-15T06:38:21.660Z,18.20
2018-06-15T06:40:49.989Z,18.40
2018-06-15T06:43:18.266Z,18.50
2018-06-15T06:45:46.548Z,18.50
2018-06-15T06:48:14.867Z,18.40
2018-06-15T06:50:43.206Z,18.50
2018-06-15T06:53:11.602Z,18.50
2018-06-15T06:55:40.032Z,18.60
2018-06-15T06:58:08.448Z,18.60
2018-06-15T07:00:36.814Z,18.70
2018-06-15T07:03:05.178Z,18.80
2018-06-15T07:05:33.486Z,19.00
2018-06-15T07:08:01.903Z,19.00
2018-06-15T07:10:30.268Z,18.90
2018-06-15T07:12:58.674Z,19.00
2018-06-15T07:15:27.002Z,18.90
2018-06-15T07:17:55.339Z,18.80
2018-06-15T07:20:23.661Z,18.80
2018-06-15T07:22:52.101Z,18.70
2018-06-15T07:25:20.515Z,18.80
2018-06-15T07:27:48.971Z,18.80
2018-06-15T07:30:17.272Z,18.80
2018-06-15T07:32:45.552Z,18.80
2018-06-15T07:35:13.954Z,18.50
2018-06-15T07:37:42.270Z,18.40
2018-06-15T07:40:10.751Z,18.60
2018-06-15T07:42:39.099Z,18.70
2018-06-15T07:45:07.708Z,18.60
2018-06-15T07:47:36.049Z,18.80
2018-06-15T07:50:04.396Z,18.90
2018-06-15T07:52:32.768Z,19.00
2018-06-15T07:55:01.077Z,19.10
2018-06-15T07:59:57.552Z,18.80
2018-06-15T08:02:25.843Z,18.60
2018-06-15T08:04:54.169Z,18.50
2018-06-15T08:07:22.532Z,18.60
2018-06-15T08:09:50.848Z,18.80
2018-06-15T08:12:19.237Z,18.80
2018-06-15T08:14:47.525Z,19.10
2018-06-15T08:17:15.858Z,19.00
2018-06-15T08:19:44.180Z,19.10
2018-06-15T08:22:12.480Z,19.10
2018-06-15T08:24:40.797Z,19.10
2018-06-15T08:27:09.930Z,19.30
2018-06-15T08:29:38.255Z,19.60
2018-06-15T08:32:06.635Z,19.90
2018-06-15T08:34:35.017Z,19.60
2018-06-15T08:37:03.477Z,19.60
2018-06-15T08:39:31.790Z,19.60
2018-06-15T08:42:00.101Z,19.70
2018-06-15T08:44:28.401Z,19.70
2018-06-15T08:46:56.724Z,19.80
2018-06-15T08:49:25.066Z,19.80
2018-06-15T08:51:53.374Z,20.10
2018-06-15T08:54:21.694Z,20.30
2018-06-15T08:56:50.002Z,20.60
2018-06-15T08:59:18.310Z,20.90
2018-06-15T09:04:14.779Z,21.40
2018-06-15T09:09:11.204Z,21.50
2018-06-15T09:11:39.524Z,21.80
2018-06-15T09:14:07.862Z,21.90
2018-06-15T09:16:36.284Z,21.50
2018-06-15T09:19:04.595Z,22.30
2018-06-15T09:21:32.952Z,22.10
2018-06-15T09:24:01.276Z,22.20
2018-06-15T09:26:29.697Z,23.30
2018-06-15T09:28:58.024Z,23.00
2018-06-15T09:31:26.324Z,23.00
2018-06-15T09:33:54.740Z,23.60
2018-06-15T09:36:23.081Z,23.00
2018-06-15T09:38:51.424Z,22.70
2018-06-15T09:41:19.755Z,22.30
2018-06-15T09:43:48.129Z,22.30
2018-06-15T09:46:16.468Z,22.40
2018-06-15T09:48:45.188Z,23.10
2018-06-15T09:51:14.828Z,23.00
2018-06-15T09:53:43.179Z,23.20
2018-06-15T09:56:11.520Z,22.50
2018-06-15T09:58:39.904Z,22.20
2018-06-15T10:03:39.931Z,22.00
2018-06-15T10:06:08.233Z,23.00
2018-06-15T10:08:36.796Z,23.60
2018-06-15T10:11:05.563Z,23.80
2018-06-15T10:13:33.893Z,23.80
2018-06-15T10:16:02.448Z,24.70
2018-06-15T10:18:30.745Z,24.40
2018-06-15T10:20:59.058Z,23.90
2018-06-15T10:23:27.379Z,23.70
2018-06-15T10:25:57.463Z,23.10
2018-06-15T10:28:25.798Z,22.80
2018-06-15T10:30:54.134Z,23.00
2018-06-15T10:33:22.458Z,22.80
2018-06-15T10:35:50.809Z,22.90
2018-06-15T10:38:19.115Z,22.80
2018-06-15T10:40:47.401Z,22.70
2018-06-15T10:43:15.718Z,22.80
2018-06-15T10:45:44.131Z,22.40
2018-06-15T10:48:12.867Z,22.40
2018-06-15T10:50:41.518Z,22.50
2018-06-15T10:53:09.817Z,22.70
2018-06-15T10:55:38.096Z,23.70
2018-06-15T10:58:06.495Z,25.00
2018-06-15T11:00:34.802Z,24.70
2018-06-15T11:03:03.248Z,25.30
2018-06-15T11:05:31.542Z,24.50
2018-06-15T11:07:59.869Z,25.10
2018-06-15T11:10:28.195Z,24.80
2018-06-15T11:12:56.540Z,24.70
2018-06-15T11:15:24.872Z,24.90
2018-06-15T11:17:53.164Z,25.20
2018-06-15T11:20:21.460Z,25.10
2018-06-15T11:25:17.833Z,24.30
2018-06-15T11:27:46.173Z,24.20
2018-06-15T11:30:14.449Z,24.40
2018-06-15T11:32:42.768Z,24.30
2018-06-15T11:37:39.164Z,23.80
2018-06-15T11:40:07.516Z,24.00
2018-06-15T11:42:35.865Z,23.70
2018-06-15T11:45:04.201Z,23.30
2018-06-15T11:47:32.533Z,22.80
2018-06-15T11:50:00.808Z,22.80
2018-06-15T11:52:29.134Z,23.10
2018-06-15T11:54:57.518Z,23.10
2018-06-15T11:57:26.163Z,23.50
2018-06-15T11:59:54.477Z,23.70
2018-06-15T12:02:22.753Z,23.70
2018-06-15T12:04:51.078Z,23.50
2018-06-15T12:07:19.446Z,23.40
2018-06-15T12:09:47.694Z,23.60
2018-06-15T12:12:15.996Z,23.50
2018-06-15T12:14:44.271Z,23.40
2018-06-15T12:17:12.676Z,23.50
2018-06-15T12:19:40.958Z,23.60
2018-06-15T12:22:09.245Z,23.60
2018-06-15T12:24:37.885Z,23.80
2018-06-15T12:27:06.168Z,24.40
2018-06-15T12:29:34.493Z,24.60
2018-06-15T12:32:02.818Z,24.40
2018-06-15T12:34:31.108Z,25.10
2018-06-15T12:39:27.768Z,24.70
2018-06-15T12:44:24.235Z,24.00
2018-06-15T12:46:52.504Z,24.00
2018-06-15T12:49:20.920Z,24.10
2018-06-15T12:51:49.224Z,24.10
2018-06-15T12:54:17.538Z,24.10
2018-06-15T12:56:45.893Z,24.20
2018-06-15T12:59:14.205Z,24.10
2018-06-15T13:01:42.497Z,23.60
2018-06-15T13:04:10.810Z,23.40
2018-06-15T13:06:39.152Z,23.30
2018-06-15T13:09:08.572Z,23.30
2018-06-15T13:11:36.876Z,23.30
2018-06-15T13:14:05.359Z,23.50
2018-06-15T13:16:33.893Z,23.30
2018-06-15T13:19:02.229Z,23.50
2018-06-15T13:21:30.603Z,23.60
2018-06-15T13:23:59.012Z,23.50
2018-06-15T13:26:27.365Z,23.30
2018-06-15T13:28:55.954Z,23.60
2018-06-15T13:31:24.337Z,23.60
2018-06-15T13:33:52.627Z,23.40
2018-06-15T13:36:20.941Z,23.70
2018-06-15T13:38:49.244Z,23.80
2018-06-15T13:41:17.570Z,24.60
2018-06-15T13:43:45.846Z,24.90
2018-06-15T13:46:14.240Z,25.60
2018-06-15T13:48:42.551Z,25.70
2018-06-15T13:51:10.843Z,25.40
2018-06-15T13:53:39.143Z,25.00
2018-06-15T13:56:07.508Z,25.00
2018-06-15T13:58:35.848Z,25.00
2018-06-15T14:01:04.164Z,25.10
2018-06-15T14:06:00.545Z,25.00
2018-06-15T14:08:28.885Z,24.70
2018-06-15T14:10:57.168Z,24.80
2018-06-15T14:13:25.468Z,24.80
2018-06-15T14:15:53.817Z,24.70
2018-06-15T14:18:22.202Z,24.70
2018-06-15T14:20:50.531Z,24.50
2018-06-15T14:23:18.817Z,24.30
2018-06-15T14:25:47.153Z,24.20
2018-06-15T14:28:15.443Z,24.10
2018-06-15T14:30:44.981Z,24.70
2018-06-15T14:33:13.307Z,24.80
2018-06-15T14:35:41.654Z,24.80
2018-06-15T14:38:10.016Z,24.60
2018-06-15T14:40:38.397Z,25.10
2018-06-15T14:43:06.652Z,24.70
2018-06-15T14:45:34.955Z,24.40
2018-06-15T14:48:03.301Z,24.20
2018-06-15T14:50:31.585Z,24.40
2018-06-15T14:52:59.996Z,24.20
2018-06-15T14:55:28.349Z,24.30
2018-06-15T14:57:56.688Z,24.10
2018-06-15T15:00:25.042Z,24.10
2018-06-15T15:02:53.424Z,24.20
2018-06-15T15:05:21.751Z,24.00
2018-06-15T15:07:50.107Z,24.10
2018-06-15T15:10:18.408Z,24.00
2018-06-15T15:12:46.728Z,23.80
2018-06-15T15:15:15.139Z,23.80
2018-06-15T15:17:43.566Z,23.80
2018-06-15T15:20:11.909Z,23.90
2018-06-15T15:22:40.260Z,23.90
2018-06-15T15:25:10.501Z,23.80
2018-06-15T15:27:38.805Z,23.80
2018-06-15T15:30:07.196Z,23.70
2018-06-15T15:32:35.554Z,23.70
2018-06-15T15:35:03.935Z,24.00
2018-06-15T15:37:35.486Z,24.10
2018-06-15T15:40:03.795Z,24.10
2018-06-15T15:42:32.108Z,23.90
2018-06-15T15:45:00.460Z,23.80
2018-06-15T15:47:28.786Z,23.80
2018-06-15T15:49:57.101Z,23.60
2018-06-15T15:52:25.610Z,23.60
2018-06-15T15:54:53.910Z,23.70
2018-06-15T15:57:22.245Z,23.90
2018-06-15T15:59:50.633Z,23.80
2018-06-15T16:02:18.964Z,23.80
2018-06-15T16:04:47.258Z,23.70
2018-06-15T16:07:15.566Z,23.70
2018-06-15T16:09:43.881Z,23.40
2018-06-15T16:12:12.187Z,23.50
2018-06-15T16:14:40.546Z,23.60
2018-06-15T16:17:08.850Z,23.50
2018-06-15T16:19:37.206Z,23.70
2018-06-15T16:22:05.655Z,23.70
2018-06-15T16:24:35.055Z,23.60
2018-06-15T16:27:03.463Z,23.70
2018-06-15T16:29:31.817Z,23.60
2018-06-15T16:32:05.315Z,23.60
2018-06-15T16:34:33.609Z,23.50
2018-06-15T16:37:01.975Z,23.50
2018-06-15T16:39:30.270Z,23.40
2018-06-15T16:41:58.594Z,23.50
2018-06-15T16:44:26.901Z,23.50
2018-06-15T16:46:55.232Z,23.50
2018-06-15T16:49:23.535Z,23.50
2018-06-15T16:51:51.827Z,23.50
2018-06-15T16:54:20.182Z,23.50
2018-06-15T16:56:48.537Z,23.40
2018-06-15T16:59:16.810Z,23.50
2018-06-15T17:01:45.112Z,23.60
2018-06-15T17:04:13.482Z,23.60
2018-06-15T17:06:41.793Z,23.50
2018-06-15T17:09:11.071Z,23.50
2018-06-15T17:11:39.369Z,23.50
2018-06-15T17:14:07.723Z,23.70
2018-06-15T17:16:36.085Z,23.70
2018-06-15T17:19:04.550Z,23.60
2018-06-15T17:24:00.917Z,23.40
2018-06-15T17:26:29.245Z,23.50
2018-06-15T17:28:57.586Z,23.60
2018-06-15T17:31:25.895Z,23.60
2018-06-15T17:33:54.250Z,23.50
2018-06-15T17:36:22.532Z,23.50
2018-06-15T17:38:50.799Z,23.60
2018-06-15T17:41:19.084Z,23.70
2018-06-15T17:43:47.402Z,23.60
2018-06-15T17:46:15.703Z,23.70
2018-06-15T17:48:44.094Z,23.60
2018-06-15T17:51:12.385Z,23.40
2018-06-15T17:53:40.692Z,23.50
2018-06-15T17:56:08.980Z,23.60
2018-06-15T17:58:37.284Z,23.60
2018-06-15T18:01:05.625Z,23.60
2018-06-15T18:03:34.022Z,23.50
2018-06-15T18:06:02.353Z,23.50
2018-06-15T18:08:30.676Z,23.40
2018-06-15T18:10:58.994Z,23.50
2018-06-15T18:13:27.384Z,23.50
2018-06-15T18:15:55.690Z,23.50
2018-06-15T18:18:23.964Z,23.60
2018-06-15T18:20:52.278Z,23.60
2018-06-15T18:23:20.645Z,23.50
2018-06-15T18:25:48.981Z,23.50
2018-06-15T18:28:17.257Z,23.40
2018-06-15T18:30:45.534Z,23.30
2018-06-15T18:33:13.840Z,23.40
2018-06-15T18:35:42.136Z,23.40
2018-06-15T18:38:10.480Z,23.40
2018-06-15T18:40:38.758Z,23.40
2018-06-15T18:43:07.098Z,23.40
2018-06-15T18:45:35.497Z,23.40
2018-06-15T18:48:03.819Z,23.30
2018-06-15T18:50:32.098Z,23.30
2018-06-15T18:53:00.420Z,23.30
2018-06-15T18:55:28.692Z,23.20
2018-06-15T18:57:57.091Z,23.20
2018-06-15T19:00:25.377Z,23.20
2018-06-15T19:02:53.723Z,23.10
2018-06-15T19:05:22.120Z,23.10
2018-06-15T19:07:50.420Z,23.00
2018-06-15T19:10:18.721Z,22.90
2018-06-15T19:12:47.296Z,22.90
2018-06-15T19:17:43.657Z,22.90
2018-06-15T19:20:11.970Z,22.80
2018-06-15T19:22:40.315Z,22.70
2018-06-15T19:25:08.683Z,22.70
2018-06-15T19:27:37.012Z,22.60
2018-06-15T19:30:05.408Z,22.50
2018-06-15T19:32:33.853Z,22.30
2018-06-15T19:35:02.175Z,22.30
2018-06-15T19:37:30.487Z,22.20
2018-06-15T19:39:58.872Z,22.20
2018-06-15T19:42:27.245Z,22.20
2018-06-15T19:44:55.600Z,22.20
2018-06-15T19:47:23.890Z,22.20
2018-06-15T19:49:52.203Z,22.20
2018-06-15T19:52:20.549Z,22.10
2018-06-15T19:54:48.863Z,21.80
2018-06-15T19:57:17.181Z,21.50
2018-06-15T19:59:45.460Z,21.30
2018-06-15T20:02:13.817Z,21.30
2018-06-15T20:04:42.209Z,21.10
2018-06-15T20:09:39.059Z,21.00
2018-06-15T20:12:07.406Z,20.90
2018-06-15T20:14:35.717Z,20.90
2018-06-15T20:18:33.485Z,20.80
2018-06-15T20:23:29.867Z,20.60
2018-06-15T20:25:58.188Z,20.50
2018-06-15T20:28:26.488Z,20.50
2018-06-15T20:30:54.817Z,20.40
2018-06-15T20:33:23.096Z,20.40
2018-06-15T20:35:51.392Z,20.40
2018-06-15T20:38:19.737Z,20.40
2018-06-15T20:40:48.077Z,20.50
2018-06-15T20:43:16.393Z,20.50
2018-06-15T20:45:44.800Z,20.50
2018-06-15T20:48:13.131Z,20.50
2018-06-15T20:50:41.413Z,20.40
2018-06-15T20:53:09.749Z,20.30
2018-06-15T20:55:38.033Z,20.40
2018-06-15T20:58:06.331Z,20.40
2018-06-15T21:00:34.623Z,20.40
2018-06-15T21:03:02.929Z,20.30
2018-06-15T21:07:59.369Z,20.30
2018-06-15T21:10:27.719Z,20.20
2018-06-15T21:12:56.022Z,20.20
2018-06-15T21:15:24.349Z,20.20
2018-06-15T21:17:52.628Z,20.00
2018-06-15T21:22:48.984Z,20.20
2018-06-15T21:25:17.303Z,20.20
2018-06-15T21:27:45.673Z,20.10
2018-06-15T21:30:13.999Z,20.30
2018-06-15T21:32:42.351Z,20.30
2018-06-15T21:35:10.684Z,20.30
2018-06-15T21:37:39.021Z,20.20
2018-06-15T21:40:07.330Z,20.30
2018-06-15T21:42:35.701Z,20.30
2018-06-15T21:45:03.997Z,20.30
2018-06-15T21:47:32.347Z,20.30
2018-06-15T21:50:00.675Z,20.30
2018-06-15T21:52:28.994Z,20.40
2018-06-15T21:54:57.292Z,20.30
2018-06-15T21:57:25.682Z,20.30
2018-06-15T21:59:54.021Z,20.30
2018-06-15T22:02:22.430Z,20.30
2018-06-15T22:04:51.195Z,20.20
2018-06-15T22:09:47.673Z,20.10
2018-06-15T22:12:15.952Z,20.10
2018-06-15T22:14:44.257Z,20.00
2018-06-15T22:17:12.582Z,20.10
2018-06-15T22:19:40.957Z,20.10
2018-06-15T22:22:09.243Z,20.10
2018-06-15T22:24:37.496Z,20.20
2018-06-15T22:27:05.896Z,20.20
2018-06-15T22:29:34.184Z,20.20
2018-06-15T22:32:02.551Z,20.20
2018-06-15T22:34:30.828Z,20.20
2018-06-15T22:36:59.171Z,20.20
2018-06-15T22:39:27.507Z,20.20
2018-06-15T22:41:55.847Z,20.20
2018-06-15T22:44:24.145Z,20.20
2018-06-15T22:46:52.461Z,20.10
2018-06-15T22:49:20.786Z,20.20
2018-06-15T22:51:49.173Z,20.20
2018-06-15T22:54:17.488Z,20.20
2018-06-15T22:56:45.784Z,20.30
2018-06-15T22:59:14.087Z,20.30
2018-06-15T23:01:42.435Z,20.20
2018-06-15T23:04:10.770Z,20.20
2018-06-15T23:06:39.209Z,20.20
2018-06-15T23:09:09.201Z,20.20
2018-06-15T23:11:37.496Z,20.20
2018-06-15T23:14:06.180Z,20.30
2018-06-15T23:16:34.662Z,20.20
2018-06-15T23:19:02.988Z,20.20
2018-06-15T23:21:31.369Z,20.20
2018-06-15T23:23:59.657Z,20.30
2018-06-15T23:26:27.951Z,20.20
2018-06-15T23:28:56.283Z,20.20
2018-06-15T23:31:24.673Z,20.20
2018-06-15T23:33:52.976Z,20.20
2018-06-15T23:36:23.382Z,20.10
2018-06-15T23:41:19.729Z,19.90
2018-06-15T23:43:48.003Z,19.80
2018-06-15T23:46:16.331Z,19.80
2018-06-15T23:48:44.660Z,19.90
2018-06-15T23:51:12.996Z,19.90
2018-06-15T23:53:41.282Z,19.90
2018-06-15T23:56:09.574Z,20.00
2018-06-15T23:58:37.937Z,19.90
